sensor_id;sensor_type;location;lat;lon;timestamp;pressure;altitude;pressure_sealevel;temperature;humidity
49723;BME280;43484;43.608;1.458;2024-01-07T00:00:53;99363.06;;;5.60;100.00
49723;BME280;43484;43.608;1.458;2024-01-07T00:03:20;99377.66;;;5.64;100.00
49723;BME280;43484;43.608;1.458;2024-01-07T00:05:47;99366.34;;;5.58;100.00
49723;BME280;43484;43.608;1.458;2024-01-07T00:08:14;99374.94;;;5.61;100.00
49723;BME280;43484;43.608;1.458;2024-01-07T00:10:41;99372.41;;;5.61;100.00
49723;BME280;43484;43.608;1.458;2024-01-07T00:13:07;99369.75;;;5.58;100.00
49723;BME280;43484;43.608;1.458;2024-01-07T00:15:34;99374.59;;;5.52;100.00
49723;BME280;43484;43.608;1.458;2024-01-07T00:18:01;99369.09;;;5.62;100.00
49723;BME280;43484;43.608;1.458;2024-01-07T00:20:28;99374.59;;;5.52;100.00
49723;BME280;43484;43.608;1.458;2024-01-07T00:22:54;99368.56;;;5.50;100.00
49723;BME280;43484;43.608;1.458;2024-01-07T00:25:22;99372.91;;;5.53;100.00
49723;BME280;43484;43.608;1.458;2024-01-07T00:27:49;99365.91;;;5.47;100.00
49723;BME280;43484;43.608;1.458;2024-01-07T00:30:18;99362.63;;;5.50;100.00
49723;BME280;43484;43.608;1.458;2024-01-07T00:32:45;99379.56;;;5.49;100.00
49723;BME280;43484;43.608;1.458;2024-01-07T00:35:12;99368.56;;;5.50;100.00
49723;BME280;43484;43.608;1.458;2024-01-07T00:37:39;99372.16;;;5.55;100.00
49723;BME280;43484;43.608;1.458;2024-01-07T00:40:06;99362.81;;;5.54;100.00
49723;BME280;43484;43.608;1.458;2024-01-07T00:42:33;99370.19;;;5.48;100.00
49723;BME280;43484;43.608;1.458;2024-01-07T00:44:59;99376.06;;;5.47;100.00
49723;BME280;43484;43.608;1.458;2024-01-07T00:47:26;99375.06;;;5.44;100.00
49723;BME280;43484;43.608;1.458;2024-01-07T00:49:53;99374.47;;;5.49;100.00
49723;BME280;43484;43.608;1.458;2024-01-07T00:52:20;99370.88;;;5.44;100.00
49723;BME280;43484;43.608;1.458;2024-01-07T00:54:48;99365.16;;;5.50;100.00
49723;BME280;43484;43.608;1.458;2024-01-07T00:57:14;99381.41;;;5.53;100.00
49723;BME280;43484;43.608;1.458;2024-01-07T00:59:41;99375.78;;;5.41;100.00
49723;BME280;43484;43.608;1.458;2024-01-07T01:02:08;99363.16;;;5.43;100.00
49723;BME280;43484;43.608;1.458;2024-01-07T01:04:38;99368.50;;;5.49;100.00
49723;BME280;43484;43.608;1.458;2024-01-07T01:07:05;99367.63;;;5.48;100.00
49723;BME280;43484;43.608;1.458;2024-01-07T01:09:34;99367.56;;;5.47;100.00
49723;BME280;43484;43.608;1.458;2024-01-07T01:12:00;99369.13;;;5.43;100.00
49723;BME280;43484;43.608;1.458;2024-01-07T01:14:27;99380.22;;;5.45;100.00
49723;BME280;43484;43.608;1.458;2024-01-07T01:16:54;99372.66;;;5.47;100.00
49723;BME280;43484;43.608;1.458;2024-01-07T01:19:21;99380.03;;;5.41;100.00
49723;BME280;43484;43.608;1.458;2024-01-07T01:21:47;99380.28;;;5.47;100.00
49723;BME280;43484;43.608;1.458;2024-01-07T01:24:14;99383.41;;;5.41;100.00
49723;BME280;43484;43.608;1.458;2024-01-07T01:26:41;99387.16;;;5.49;100.00
49723;BME280;43484;43.608;1.458;2024-01-07T01:29:07;99383.56;;;5.44;100.00
49723;BME280;43484;43.608;1.458;2024-01-07T01:31:34;99378.34;;;5.41;100.00
49723;BME280;43484;43.608;1.458;2024-01-07T01:34:01;99386.91;;;5.43;100.00
49723;BME280;43484;43.608;1.458;2024-01-07T01:36:28;99390.38;;;5.45;100.00
49723;BME280;43484;43.608;1.458;2024-01-07T01:38:54;99396.69;;;5.34;100.00
49723;BME280;43484;43.608;1.458;2024-01-07T01:41:21;99397.75;;;5.39;100.00
49723;BME280;43484;43.608;1.458;2024-01-07T01:43:47;99399.94;;;5.32;100.00
49723;BME280;43484;43.608;1.458;2024-01-07T01:46:14;99399.59;;;5.43;100.00
49723;BME280;43484;43.608;1.458;2024-01-07T01:48:41;99407.84;;;5.58;100.00
49723;BME280;43484;43.608;1.458;2024-01-07T01:51:09;99408.38;;;5.31;100.00
49723;BME280;43484;43.608;1.458;2024-01-07T01:53:37;99421.25;;;5.35;100.00
49723;BME280;43484;43.608;1.458;2024-01-07T01:56:04;99420.66;;;5.41;100.00
49723;BME280;43484;43.608;1.458;2024-01-07T01:58:32;99411.22;;;5.38;100.00
49723;BME280;43484;43.608;1.458;2024-01-07T02:00:59;99408.56;;;5.35;100.00
49723;BME280;43484;43.608;1.458;2024-01-07T02:03:26;99417.25;;;5.40;100.00
49723;BME280;43484;43.608;1.458;2024-01-07T02:05:53;99412.09;;;5.39;100.00
49723;BME280;43484;43.608;1.458;2024-01-07T02:08:20;99410.63;;;5.25;100.00
49723;BME280;43484;43.608;1.458;2024-01-07T02:10:47;99414.31;;;5.31;100.00
49723;BME280;43484;43.608;1.458;2024-01-07T02:13:13;99418.59;;;5.32;100.00
49723;BME280;43484;43.608;1.458;2024-01-07T02:15:40;99413.25;;;5.26;100.00
49723;BME280;43484;43.608;1.458;2024-01-07T02:18:07;99409.91;;;5.27;100.00
49723;BME280;43484;43.608;1.458;2024-01-07T02:20:34;99426.56;;;5.21;100.00
49723;BME280;43484;43.608;1.458;2024-01-07T02:23:03;99423.16;;;5.20;100.00
49723;BME280;43484;43.608;1.458;2024-01-07T02:25:35;99428.28;;;5.22;100.00
49723;BME280;43484;43.608;1.458;2024-01-07T02:28:02;99430.75;;;5.20;100.00
49723;BME280;43484;43.608;1.458;2024-01-07T02:30:29;99433.03;;;5.14;100.00
49723;BME280;43484;43.608;1.458;2024-01-07T02:33:01;99432.53;;;5.23;100.00
49723;BME280;43484;43.608;1.458;2024-01-07T02:35:27;99430.00;;;5.23;100.00
49723;BME280;43484;43.608;1.458;2024-01-07T02:37:54;99438.91;;;5.13;100.00
49723;BME280;43484;43.608;1.458;2024-01-07T02:40:20;99438.84;;;5.11;100.00
49723;BME280;43484;43.608;1.458;2024-01-07T02:42:47;99447.78;;;5.03;100.00
49723;BME280;43484;43.608;1.458;2024-01-07T02:45:14;99441.19;;;5.07;100.00
49723;BME280;43484;43.608;1.458;2024-01-07T02:47:41;99434.13;;;5.19;100.00
49723;BME280;43484;43.608;1.458;2024-01-07T02:50:07;99437.97;;;5.11;100.00
49723;BME280;43484;43.608;1.458;2024-01-07T02:52:34;99439.78;;;5.13;100.00
49723;BME280;43484;43.608;1.458;2024-01-07T02:55:01;99453.59;;;5.01;100.00
49723;BME280;43484;43.608;1.458;2024-01-07T02:57:30;99449.44;;;5.03;100.00
49723;BME280;43484;43.608;1.458;2024-01-07T02:59:58;99460.13;;;4.96;100.00
49723;BME280;43484;43.608;1.458;2024-01-07T03:02:24;99451.84;;;5.00;100.00
49723;BME280;43484;43.608;1.458;2024-01-07T03:04:51;99467.28;;;5.04;100.00
49723;BME280;43484;43.608;1.458;2024-01-07T03:07:17;99456.03;;;5.17;100.00
49723;BME280;43484;43.608;1.458;2024-01-07T03:09:44;99455.88;;;5.14;100.00
49723;BME280;43484;43.608;1.458;2024-01-07T03:12:17;99472.81;;;4.96;100.00
49723;BME280;43484;43.608;1.458;2024-01-07T03:14:44;99468.03;;;5.02;100.00
49723;BME280;43484;43.608;1.458;2024-01-07T03:17:10;99475.47;;;4.99;100.00
49723;BME280;43484;43.608;1.458;2024-01-07T03:19:37;99479.91;;;5.03;100.00
49723;BME280;43484;43.608;1.458;2024-01-07T03:22:04;99490.44;;;4.93;100.00
49723;BME280;43484;43.608;1.458;2024-01-07T03:24:33;99504.72;;;4.91;100.00
49723;BME280;43484;43.608;1.458;2024-01-07T03:27:00;99508.06;;;4.90;100.00
49723;BME280;43484;43.608;1.458;2024-01-07T03:29:27;99510.16;;;4.98;100.00
49723;BME280;43484;43.608;1.458;2024-01-07T03:31:53;99535.31;;;4.94;100.00
49723;BME280;43484;43.608;1.458;2024-01-07T03:34:20;99548.75;;;4.91;100.00
49723;BME280;43484;43.608;1.458;2024-01-07T03:36:47;99563.53;;;5.00;100.00
49723;BME280;43484;43.608;1.458;2024-01-07T03:39:13;99567.81;;;5.01;100.00
49723;BME280;43484;43.608;1.458;2024-01-07T03:41:40;99576.66;;;4.91;100.00
49723;BME280;43484;43.608;1.458;2024-01-07T03:44:06;99566.00;;;4.81;100.00
49723;BME280;43484;43.608;1.458;2024-01-07T03:46:33;99565.28;;;4.83;100.00
49723;BME280;43484;43.608;1.458;2024-01-07T03:49:00;99568.84;;;4.87;100.00
49723;BME280;43484;43.608;1.458;2024-01-07T03:51:26;99554.25;;;4.83;100.00
49723;BME280;43484;43.608;1.458;2024-01-07T03:53:53;99559.47;;;4.86;100.00
49723;BME280;43484;43.608;1.458;2024-01-07T03:56:20;99554.97;;;4.98;100.00
49723;BME280;43484;43.608;1.458;2024-01-07T03:58:46;99571.31;;;4.85;100.00
49723;BME280;43484;43.608;1.458;2024-01-07T04:01:17;99563.03;;;4.89;100.00
49723;BME280;43484;43.608;1.458;2024-01-07T04:03:44;99566.94;;;5.00;100.00
49723;BME280;43484;43.608;1.458;2024-01-07T04:06:11;99577.47;;;4.90;100.00
49723;BME280;43484;43.608;1.458;2024-01-07T04:08:38;99569.38;;;4.99;100.00
49723;BME280;43484;43.608;1.458;2024-01-07T04:11:04;99578.94;;;4.85;100.00
49723;BME280;43484;43.608;1.458;2024-01-07T04:13:31;99586.97;;;4.77;100.00
49723;BME280;43484;43.608;1.458;2024-01-07T04:15:58;99581.72;;;4.74;100.00
49723;BME280;43484;43.608;1.458;2024-01-07T04:18:24;99568.78;;;4.85;100.00
49723;BME280;43484;43.608;1.458;2024-01-07T04:20:51;99584.00;;;4.85;100.00
49723;BME280;43484;43.608;1.458;2024-01-07T04:23:18;99594.03;;;4.84;100.00
49723;BME280;43484;43.608;1.458;2024-01-07T04:25:44;99580.41;;;4.99;100.00
49723;BME280;43484;43.608;1.458;2024-01-07T04:28:11;99595.66;;;4.82;100.00
49723;BME280;43484;43.608;1.458;2024-01-07T04:30:38;99599.41;;;4.72;100.00
49723;BME280;43484;43.608;1.458;2024-01-07T04:33:05;99594.34;;;4.72;100.00
49723;BME280;43484;43.608;1.458;2024-01-07T04:35:31;99599.28;;;4.87;100.00
49723;BME280;43484;43.608;1.458;2024-01-07T04:37:58;99609.56;;;4.72;100.00
49723;BME280;43484;43.608;1.458;2024-01-07T04:40:25;99594.72;;;4.80;100.00
49723;BME280;43484;43.608;1.458;2024-01-07T04:42:51;99611.31;;;4.73;100.00
49723;BME280;43484;43.608;1.458;2024-01-07T04:45:18;99594.94;;;4.67;100.00
49723;BME280;43484;43.608;1.458;2024-01-07T04:47:44;99578.03;;;4.67;100.00
49723;BME280;43484;43.608;1.458;2024-01-07T04:50:11;99566.44;;;4.55;100.00
49723;BME280;43484;43.608;1.458;2024-01-07T04:52:40;99562.06;;;4.52;100.00
49723;BME280;43484;43.608;1.458;2024-01-07T04:55:07;99545.34;;;4.56;100.00
49723;BME280;43484;43.608;1.458;2024-01-07T04:57:35;99543.38;;;4.68;100.00
49723;BME280;43484;43.608;1.458;2024-01-07T05:00:02;99541.06;;;4.55;100.00
49723;BME280;43484;43.608;1.458;2024-01-07T05:02:30;99543.22;;;4.47;100.00
49723;BME280;43484;43.608;1.458;2024-01-07T05:04:56;99534.97;;;4.51;100.00
49723;BME280;43484;43.608;1.458;2024-01-07T05:07:23;99529.47;;;4.60;100.00
49723;BME280;43484;43.608;1.458;2024-01-07T05:09:50;99546.00;;;4.52;100.00
49723;BME280;43484;43.608;1.458;2024-01-07T05:12:16;99533.38;;;4.53;100.00
49723;BME280;43484;43.608;1.458;2024-01-07T05:14:43;99536.94;;;4.57;100.00
49723;BME280;43484;43.608;1.458;2024-01-07T05:17:10;99523.00;;;4.49;100.00
49723;BME280;43484;43.608;1.458;2024-01-07T05:19:40;99518.25;;;4.55;100.00
49723;BME280;43484;43.608;1.458;2024-01-07T05:22:08;99517.28;;;4.53;100.00
49723;BME280;43484;43.608;1.458;2024-01-07T05:24:38;99532.31;;;4.48;100.00
49723;BME280;43484;43.608;1.458;2024-01-07T05:27:08;99533.88;;;4.46;100.00
49723;BME280;43484;43.608;1.458;2024-01-07T05:29:35;99527.78;;;4.43;100.00
49723;BME280;43484;43.608;1.458;2024-01-07T05:32:02;99530.63;;;4.49;100.00
49723;BME280;43484;43.608;1.458;2024-01-07T05:34:29;99537.13;;;4.44;100.00
49723;BME280;43484;43.608;1.458;2024-01-07T05:36:56;99543.75;;;4.40;100.00
49723;BME280;43484;43.608;1.458;2024-01-07T05:39:23;99536.84;;;4.38;100.00
49723;BME280;43484;43.608;1.458;2024-01-07T05:41:49;99553.09;;;4.41;100.00
49723;BME280;43484;43.608;1.458;2024-01-07T05:44:16;99548.56;;;4.36;100.00
49723;BME280;43484;43.608;1.458;2024-01-07T05:46:43;99546.09;;;4.37;100.00
49723;BME280;43484;43.608;1.458;2024-01-07T05:49:09;99559.19;;;4.29;100.00
49723;BME280;43484;43.608;1.458;2024-01-07T05:51:40;99562.13;;;4.36;100.00
49723;BME280;43484;43.608;1.458;2024-01-07T05:54:08;99552.69;;;4.34;100.00
49723;BME280;43484;43.608;1.458;2024-01-07T05:56:41;99561.91;;;4.32;100.00
49723;BME280;43484;43.608;1.458;2024-01-07T05:59:08;99567.13;;;4.35;100.00
49723;BME280;43484;43.608;1.458;2024-01-07T06:01:35;99589.56;;;4.27;100.00
49723;BME280;43484;43.608;1.458;2024-01-07T06:04:02;99580.63;;;4.51;100.00
49723;BME280;43484;43.608;1.458;2024-01-07T06:06:29;99587.47;;;4.36;100.00
49723;BME280;43484;43.608;1.458;2024-01-07T06:08:56;99584.59;;;4.46;100.00
49723;BME280;43484;43.608;1.458;2024-01-07T06:11:22;99593.69;;;4.25;100.00
49723;BME280;43484;43.608;1.458;2024-01-07T06:13:49;99600.09;;;4.35;100.00
49723;BME280;43484;43.608;1.458;2024-01-07T06:16:16;99610.78;;;4.29;100.00
49723;BME280;43484;43.608;1.458;2024-01-07T06:18:42;99612.28;;;4.26;100.00
49723;BME280;43484;43.608;1.458;2024-01-07T06:21:10;99620.94;;;4.29;100.00
49723;BME280;43484;43.608;1.458;2024-01-07T06:23:36;99624.28;;;4.28;100.00
49723;BME280;43484;43.608;1.458;2024-01-07T06:26:03;99635.91;;;4.25;100.00
49723;BME280;43484;43.608;1.458;2024-01-07T06:28:31;99641.94;;;4.27;100.00
49723;BME280;43484;43.608;1.458;2024-01-07T06:30:58;99653.19;;;4.32;100.00
49723;BME280;43484;43.608;1.458;2024-01-07T06:33:26;99660.22;;;4.37;100.00
49723;BME280;43484;43.608;1.458;2024-01-07T06:35:53;99669.50;;;4.21;100.00
49723;BME280;43484;43.608;1.458;2024-01-07T06:38:22;99670.22;;;4.18;100.00
49723;BME280;43484;43.608;1.458;2024-01-07T06:40:50;99675.81;;;4.29;100.00
49723;BME280;43484;43.608;1.458;2024-01-07T06:43:17;99683.06;;;4.21;100.00
49723;BME280;43484;43.608;1.458;2024-01-07T06:45:44;99689.53;;;4.32;100.00
49723;BME280;43484;43.608;1.458;2024-01-07T06:48:11;99701.75;;;4.23;100.00
49723;BME280;43484;43.608;1.458;2024-01-07T06:50:38;99699.69;;;4.16;100.00
49723;BME280;43484;43.608;1.458;2024-01-07T06:53:04;99714.28;;;4.20;100.00
49723;BME280;43484;43.608;1.458;2024-01-07T06:55:31;99707.69;;;4.24;100.00
49723;BME280;43484;43.608;1.458;2024-01-07T06:57:57;99716.81;;;4.20;100.00
49723;BME280;43484;43.608;1.458;2024-01-07T07:00:24;99718.31;;;4.33;100.00
49723;BME280;43484;43.608;1.458;2024-01-07T07:02:51;99727.66;;;4.34;100.00
49723;BME280;43484;43.608;1.458;2024-01-07T07:05:18;99737.25;;;4.23;100.00
49723;BME280;43484;43.608;1.458;2024-01-07T07:07:44;99736.53;;;4.26;100.00
49723;BME280;43484;43.608;1.458;2024-01-07T07:10:12;99749.28;;;4.27;100.00
49723;BME280;43484;43.608;1.458;2024-01-07T07:12:39;99743.16;;;4.24;100.00
49723;BME280;43484;43.608;1.458;2024-01-07T07:15:06;99753.66;;;4.30;100.00
49723;BME280;43484;43.608;1.458;2024-01-07T07:17:33;99751.88;;;4.29;100.00
49723;BME280;43484;43.608;1.458;2024-01-07T07:19:59;99768.38;;;4.21;100.00
49723;BME280;43484;43.608;1.458;2024-01-07T07:22:27;99762.34;;;4.19;100.00
49723;BME280;43484;43.608;1.458;2024-01-07T07:24:54;99759.50;;;4.29;100.00
49723;BME280;43484;43.608;1.458;2024-01-07T07:27:24;99764.41;;;4.26;100.00
49723;BME280;43484;43.608;1.458;2024-01-07T07:29:51;99768.22;;;4.34;100.00
49723;BME280;43484;43.608;1.458;2024-01-07T07:32:18;99781.84;;;4.20;100.00
49723;BME280;43484;43.608;1.458;2024-01-07T07:34:45;99786.47;;;4.43;100.00
49723;BME280;43484;43.608;1.458;2024-01-07T07:37:14;99788.50;;;4.18;100.00
49723;BME280;43484;43.608;1.458;2024-01-07T07:39:42;99797.06;;;4.20;100.00
49723;BME280;43484;43.608;1.458;2024-01-07T07:42:09;99800.78;;;4.26;100.00
49723;BME280;43484;43.608;1.458;2024-01-07T07:44:36;99813.84;;;4.34;100.00
49723;BME280;43484;43.608;1.458;2024-01-07T07:47:05;99812.88;;;4.16;100.00
49723;BME280;43484;43.608;1.458;2024-01-07T07:49:32;99825.63;;;4.17;100.00
49723;BME280;43484;43.608;1.458;2024-01-07T07:51:58;99838.00;;;4.11;100.00
49723;BME280;43484;43.608;1.458;2024-01-07T07:54:25;99831.34;;;4.13;100.00
49723;BME280;43484;43.608;1.458;2024-01-07T07:56:52;99838.69;;;4.09;100.00
49723;BME280;43484;43.608;1.458;2024-01-07T07:59:19;99830.88;;;4.20;100.00
49723;BME280;43484;43.608;1.458;2024-01-07T08:01:46;99837.19;;;4.12;100.00
49723;BME280;43484;43.608;1.458;2024-01-07T08:04:12;99845.13;;;4.18;100.00
49723;BME280;43484;43.608;1.458;2024-01-07T08:06:39;99851.78;;;4.16;100.00
49723;BME280;43484;43.608;1.458;2024-01-07T08:09:06;99864.13;;;4.10;100.00
49723;BME280;43484;43.608;1.458;2024-01-07T08:11:33;99862.63;;;4.14;100.00
49723;BME280;43484;43.608;1.458;2024-01-07T08:14:02;99885.53;;;4.15;100.00
49723;BME280;43484;43.608;1.458;2024-01-07T08:16:29;99895.69;;;4.15;100.00
49723;BME280;43484;43.608;1.458;2024-01-07T08:18:55;99906.25;;;4.39;100.00
49723;BME280;43484;43.608;1.458;2024-01-07T08:21:23;99924.94;;;4.25;100.00
49723;BME280;43484;43.608;1.458;2024-01-07T08:23:51;99935.75;;;4.37;100.00
49723;BME280;43484;43.608;1.458;2024-01-07T08:26:19;99937.78;;;4.28;100.00
49723;BME280;43484;43.608;1.458;2024-01-07T08:28:46;99944.53;;;4.13;100.00
49723;BME280;43484;43.608;1.458;2024-01-07T08:31:12;99940.31;;;4.28;100.00
49723;BME280;43484;43.608;1.458;2024-01-07T08:33:39;99931.66;;;4.24;100.00
49723;BME280;43484;43.608;1.458;2024-01-07T08:36:07;99949.16;;;4.20;100.00
49723;BME280;43484;43.608;1.458;2024-01-07T08:38:33;99938.56;;;4.27;100.00
49723;BME280;43484;43.608;1.458;2024-01-07T08:41:00;99934.81;;;4.20;100.00
49723;BME280;43484;43.608;1.458;2024-01-07T08:43:27;99951.97;;;4.10;100.00
49723;BME280;43484;43.608;1.458;2024-01-07T08:45:53;99928.34;;;4.11;100.00
49723;BME280;43484;43.608;1.458;2024-01-07T08:48:20;99923.38;;;4.27;100.00
49723;BME280;43484;43.608;1.458;2024-01-07T08:50:47;99933.59;;;4.14;100.00
49723;BME280;43484;43.608;1.458;2024-01-07T08:53:14;99922.97;;;4.05;100.00
49723;BME280;43484;43.608;1.458;2024-01-07T08:55:41;99899.97;;;4.02;100.00
49723;BME280;43484;43.608;1.458;2024-01-07T08:58:07;99897.25;;;3.99;100.00
49723;BME280;43484;43.608;1.458;2024-01-07T09:00:34;99895.38;;;3.80;100.00
49723;BME280;43484;43.608;1.458;2024-01-07T09:03:01;99879.47;;;3.82;100.00
49723;BME280;43484;43.608;1.458;2024-01-07T09:05:27;99878.94;;;3.88;100.00
49723;BME280;43484;43.608;1.458;2024-01-07T09:07:54;99875.41;;;4.01;100.00
49723;BME280;43484;43.608;1.458;2024-01-07T09:10:22;99875.25;;;3.98;100.00
49723;BME280;43484;43.608;1.458;2024-01-07T09:12:48;99882.66;;;4.09;100.00
49723;BME280;43484;43.608;1.458;2024-01-07T09:15:18;99887.50;;;4.21;100.00
49723;BME280;43484;43.608;1.458;2024-01-07T09:17:44;99892.75;;;4.24;100.00
49723;BME280;43484;43.608;1.458;2024-01-07T09:20:12;99904.22;;;4.17;100.00
49723;BME280;43484;43.608;1.458;2024-01-07T09:22:39;99916.41;;;4.08;100.00
49723;BME280;43484;43.608;1.458;2024-01-07T09:25:06;99922.47;;;4.26;100.00
49723;BME280;43484;43.608;1.458;2024-01-07T09:27:33;99921.78;;;4.14;100.00
49723;BME280;43484;43.608;1.458;2024-01-07T09:30:00;99914.34;;;4.17;100.00
49723;BME280;43484;43.608;1.458;2024-01-07T09:32:28;99922.72;;;4.45;100.00
49723;BME280;43484;43.608;1.458;2024-01-07T09:34:54;99950.66;;;4.16;100.00
49723;BME280;43484;43.608;1.458;2024-01-07T09:37:21;99950.31;;;4.10;100.00
49723;BME280;43484;43.608;1.458;2024-01-07T09:39:48;99936.69;;;4.08;100.00
49723;BME280;43484;43.608;1.458;2024-01-07T09:42:17;99968.75;;;4.08;100.00
49723;BME280;43484;43.608;1.458;2024-01-07T09:44:44;99973.53;;;3.88;100.00
49723;BME280;43484;43.608;1.458;2024-01-07T09:47:14;99948.72;;;3.98;100.00
49723;BME280;43484;43.608;1.458;2024-01-07T09:49:43;99955.91;;;4.05;100.00
49723;BME280;43484;43.608;1.458;2024-01-07T09:52:11;99952.13;;;4.13;100.00
49723;BME280;43484;43.608;1.458;2024-01-07T09:54:40;99958.56;;;4.37;100.00
49723;BME280;43484;43.608;1.458;2024-01-07T09:57:09;99954.28;;;4.50;100.00
49723;BME280;43484;43.608;1.458;2024-01-07T09:59:37;99972.06;;;4.21;100.00
49723;BME280;43484;43.608;1.458;2024-01-07T10:02:03;99971.78;;;4.31;100.00
49723;BME280;43484;43.608;1.458;2024-01-07T10:04:31;99978.50;;;4.31;100.00
49723;BME280;43484;43.608;1.458;2024-01-07T10:06:58;99999.06;;;4.35;100.00
49723;BME280;43484;43.608;1.458;2024-01-07T10:09:29;100003.25;;;4.35;100.00
49723;BME280;43484;43.608;1.458;2024-01-07T10:11:56;100024.31;;;4.19;100.00
49723;BME280;43484;43.608;1.458;2024-01-07T10:14:23;100010.97;;;4.22;100.00
49723;BME280;43484;43.608;1.458;2024-01-07T10:16:51;100027.13;;;4.24;100.00
49723;BME280;43484;43.608;1.458;2024-01-07T10:19:22;100019.25;;;4.34;100.00
49723;BME280;43484;43.608;1.458;2024-01-07T10:21:59;100016.44;;;4.44;100.00
49723;BME280;43484;43.608;1.458;2024-01-07T10:24:40;100041.34;;;4.51;100.00
49723;BME280;43484;43.608;1.458;2024-01-07T10:27:08;100045.09;;;4.72;100.00
49723;BME280;43484;43.608;1.458;2024-01-07T10:29:35;100049.66;;;4.63;100.00
49723;BME280;43484;43.608;1.458;2024-01-07T10:32:02;100060.06;;;4.53;100.00
49723;BME280;43484;43.608;1.458;2024-01-07T10:34:32;100070.25;;;4.38;100.00
49723;BME280;43484;43.608;1.458;2024-01-07T10:37:00;100061.22;;;4.43;100.00
49723;BME280;43484;43.608;1.458;2024-01-07T10:39:28;100058.44;;;4.53;100.00
49723;BME280;43484;43.608;1.458;2024-01-07T10:41:56;100061.94;;;4.55;100.00
49723;BME280;43484;43.608;1.458;2024-01-07T10:44:27;100061.75;;;4.67;100.00
49723;BME280;43484;43.608;1.458;2024-01-07T10:46:54;100073.81;;;4.56;100.00
49723;BME280;43484;43.608;1.458;2024-01-07T10:49:23;100088.88;;;4.53;100.00
49723;BME280;43484;43.608;1.458;2024-01-07T10:52:07;100093.06;;;4.53;100.00
49723;BME280;43484;43.608;1.458;2024-01-07T10:54:35;100097.25;;;4.67;100.00
49723;BME280;43484;43.608;1.458;2024-01-07T10:57:09;100088.84;;;4.68;100.00
49723;BME280;43484;43.608;1.458;2024-01-07T10:59:40;100081.34;;;4.55;100.00
49723;BME280;43484;43.608;1.458;2024-01-07T11:02:08;100082.75;;;4.50;100.00
49723;BME280;43484;43.608;1.458;2024-01-07T11:10:04;100108.28;;;4.53;100.00
49723;BME280;43484;43.608;1.458;2024-01-07T11:12:33;100090.34;;;4.64;100.00
49723;BME280;43484;43.608;1.458;2024-01-07T11:15:00;100100.66;;;4.67;100.00
49723;BME280;43484;43.608;1.458;2024-01-07T11:20:06;100081.94;;;4.65;100.00
49723;BME280;43484;43.608;1.458;2024-01-07T11:22:33;100103.63;;;4.46;100.00
49723;BME280;43484;43.608;1.458;2024-01-07T11:25:01;100083.78;;;4.53;100.00
49723;BME280;43484;43.608;1.458;2024-01-07T11:27:30;100095.16;;;4.45;100.00
49723;BME280;43484;43.608;1.458;2024-01-07T11:30:10;100085.19;;;4.48;100.00
49723;BME280;43484;43.608;1.458;2024-01-07T11:32:45;100081.16;;;4.52;100.00
49723;BME280;43484;43.608;1.458;2024-01-07T11:35:15;100081.84;;;4.49;100.00
49723;BME280;43484;43.608;1.458;2024-01-07T11:37:42;100075.13;;;4.50;100.00
49723;BME280;43484;43.608;1.458;2024-01-07T11:40:09;100074.50;;;4.54;100.00
49723;BME280;43484;43.608;1.458;2024-01-07T11:42:38;100069.53;;;4.55;100.00
49723;BME280;43484;43.608;1.458;2024-01-07T11:45:05;100073.81;;;4.56;100.00
49723;BME280;43484;43.608;1.458;2024-01-07T11:47:32;100076.25;;;4.55;100.00
49723;BME280;43484;43.608;1.458;2024-01-07T11:49:58;100069.75;;;4.74;100.00
49723;BME280;43484;43.608;1.458;2024-01-07T11:52:26;100081.59;;;4.59;100.00
49723;BME280;43484;43.608;1.458;2024-01-07T11:54:54;100073.91;;;4.58;100.00
49723;BME280;43484;43.608;1.458;2024-01-07T11:57:20;100084.22;;;4.61;100.00
49723;BME280;43484;43.608;1.458;2024-01-07T11:59:47;100082.81;;;4.66;100.00
49723;BME280;43484;43.608;1.458;2024-01-07T12:02:14;100080.53;;;4.70;100.00
49723;BME280;43484;43.608;1.458;2024-01-07T12:04:41;100074.06;;;4.75;100.00
49723;BME280;43484;43.608;1.458;2024-01-07T12:07:09;100075.19;;;4.80;100.00
49723;BME280;43484;43.608;1.458;2024-01-07T12:09:37;100082.16;;;4.84;100.00
49723;BME280;43484;43.608;1.458;2024-01-07T12:12:04;100097.06;;;4.78;100.00
49723;BME280;43484;43.608;1.458;2024-01-07T12:14:31;100081.94;;;4.65;100.00
49723;BME280;43484;43.608;1.458;2024-01-07T12:16:58;100079.22;;;4.77;100.00
49723;BME280;43484;43.608;1.458;2024-01-07T12:19:25;100095.28;;;4.77;100.00
49723;BME280;43484;43.608;1.458;2024-01-07T12:22:06;100084.97;;;4.74;100.00
49723;BME280;43484;43.608;1.458;2024-01-07T12:24:33;100094.00;;;4.69;100.00
49723;BME280;43484;43.608;1.458;2024-01-07T12:27:07;100080.44;;;4.83;100.00
49723;BME280;43484;43.608;1.458;2024-01-07T12:29:34;100068.00;;;4.88;100.00
49723;BME280;43484;43.608;1.458;2024-01-07T12:32:01;100074.09;;;4.91;100.00
49723;BME280;43484;43.608;1.458;2024-01-07T12:34:30;100078.41;;;4.78;100.00
49723;BME280;43484;43.608;1.458;2024-01-07T12:36:57;100067.28;;;4.90;100.00
49723;BME280;43484;43.608;1.458;2024-01-07T12:39:26;100069.56;;;4.86;100.00
49723;BME280;43484;43.608;1.458;2024-01-07T12:41:54;100059.63;;;5.05;100.00
49723;BME280;43484;43.608;1.458;2024-01-07T12:44:20;100067.53;;;4.95;100.00
49723;BME280;43484;43.608;1.458;2024-01-07T12:46:47;100069.91;;;4.92;100.00
49723;BME280;43484;43.608;1.458;2024-01-07T12:49:14;100071.25;;;4.85;100.00
49723;BME280;43484;43.608;1.458;2024-01-07T12:51:42;100061.34;;;4.90;100.00
49723;BME280;43484;43.608;1.458;2024-01-07T12:54:08;100065.00;;;4.95;100.00
49723;BME280;43484;43.608;1.458;2024-01-07T12:56:35;100071.44;;;5.04;100.00
49723;BME280;43484;43.608;1.458;2024-01-07T12:59:02;100072.81;;;4.83;100.00
49723;BME280;43484;43.608;1.458;2024-01-07T13:01:29;100079.88;;;4.89;100.00
49723;BME280;43484;43.608;1.458;2024-01-07T13:03:57;100071.19;;;5.00;100.00
49723;BME280;43484;43.608;1.458;2024-01-07T13:06:25;100075.47;;;5.01;100.00